METAR Data
IDs: Format: Raw Decoded Include TAF

Data at: 0120 UTC 06 Dec 2019

KMRC 060115Z AUTO 00000KT 10SM SCT095 BKN120 11/M00 A3010 RMK A01
KMRC 060055Z AUTO 00000KT 10SM BKN090 BKN120 12/M01 A3009 RMK A01
KMRC 060035Z AUTO 14004KT 10SM BKN090 OVC110 12/M02 A3009 RMK A01
KMRC 060015Z AUTO 14003KT 10SM OVC090 13/M02 A3009 RMK A01
KMRC 052355Z AUTO 00000KT 10SM OVC090 13/M02 A3009 RMK A01
KMRC 052335Z AUTO 00000KT 10SM OVC100 13/M01 A3009 RMK A01
KMRC 052315Z AUTO 19004KT 10SM FEW100 OVC120 14/M02 A3008 RMK A01
KMRC 052255Z AUTO 19004KT 10SM BKN120 14/M02 A3007 RMK A01
KMRC 052235Z AUTO 20005KT 10SM SCT110 14/M02 A3007 RMK A01
KMRC 052215Z AUTO 21007KT 10SM FEW110 14/M03 A3007 RMK A01
KMRC 052155Z AUTO 21007KT 10SM CLR 15/M02 A3007 RMK A01
KMRC 052135Z AUTO 22006KT 10SM CLR 16/M02 A3007 RMK A01
KMRC 052115Z AUTO 22008KT 8SM CLR 17/M03 A3006 RMK A01
KMRC 052055Z AUTO 22006KT 10SM CLR 16/M03 A3006 RMK A01
KMRC 052035Z AUTO 21008KT 10SM CLR 16/M03 A3007 RMK A01
KMRC 052015Z AUTO 20009KT 10SM CLR 17/M03 A3007 RMK A01
KMRC 051955Z AUTO 21007KT 10SM CLR 17/M02 A3007 RMK A01
KMRC 051935Z AUTO VRB03KT 10SM CLR 17/M02 A3007 RMK A01
KMRC 051915Z AUTO 19006G13KT 10SM CLR 17/M02 A3008 RMK A01
KMRC 051855Z AUTO 19008KT 10SM CLR 17/M02 A3008 RMK A01
KMRC 051835Z AUTO VRB05G13KT 10SM CLR 17/M01 A3009 RMK A01
KMRC 051815Z AUTO 00000KT 10SM CLR 16/M02 A3010 RMK A01
KMRC 051755Z AUTO 19005KT 10SM CLR 16/M02 A3010 RMK A01
KMRC 051735Z AUTO 00000KT 10SM CLR 15/M01 A3011 RMK A01
KMRC 051715Z AUTO VRB04KT 10SM CLR 15/M01 A3012 RMK A01
KMRC 051655Z AUTO VRB05KT 10SM CLR 15/M00 A3012 RMK A01
KMRC 051615Z AUTO 11005KT 10SM CLR 13/01 A3014 RMK A01
KMRC 051555Z AUTO 00000KT 10SM CLR 12/02 A3014 RMK A01
KMRC 051535Z AUTO 00000KT 9SM CLR 10/04 A3014 RMK A01
KMRC 051515Z AUTO 00000KT 9SM CLR 08/04 A3014 RMK A01
KMRC 051455Z AUTO 00000KT 10SM CLR 07/05 A3014 RMK A01
KMRC 051435Z AUTO 00000KT 6SM BR FEW002 05/05 A3013 RMK A01
KMRC 051415Z AUTO 00000KT 2 1/2SM BR FEW002 04/04 A3013 RMK A01
KMRC 051355Z AUTO 00000KT 4SM BR CLR 02/02 A3013 RMK A01
KMRC 051335Z AUTO 00000KT 3SM BR CLR 01/01 A3012 RMK A01
KMRC 051315Z AUTO 00000KT 6SM BR FEW002 01/01 A3011 RMK A01
KMRC 051255Z AUTO 00000KT 9SM FEW003 01/01 A3010 RMK A01
KMRC 051235Z AUTO 00000KT 7SM FEW002 01/01 A3010 RMK A01
KMRC 051215Z AUTO 00000KT 9SM CLR 01/01 A3009 RMK A01
KMRC 051155Z AUTO 00000KT 6SM BR FEW002 01/01 A3007 RMK A01
KMRC 051135Z AUTO 00000KT 6SM BR SCT002 01/01 A3007 RMK A01
KMRC 051115Z AUTO 00000KT 10SM CLR 01/01 A3007 RMK A01
KMRC 051055Z AUTO 00000KT 10SM FEW002 01/01 A3006 RMK A01
KMRC 051035Z AUTO 00000KT 8SM FEW002 01/01 A3006 RMK A01
KMRC 051015Z AUTO 00000KT 10SM CLR 00/00 A3005 RMK A01
KMRC 050955Z AUTO 00000KT 10SM CLR M00/M00 A3005 RMK A01
KMRC 050935Z AUTO 00000KT 10SM CLR M00/M00 A3005 RMK A01
KMRC 050915Z AUTO 00000KT 10SM CLR M01/M01 A3004 RMK A01
KMRC 050855Z AUTO 00000KT 10SM CLR M01/M01 A3004 RMK A01
KMRC 050835Z AUTO 00000KT 10SM CLR 00/00 A3003 RMK A01
KMRC 050810Z AUTO 00000KT 10SM CLR 01/01 A3003 RMK A01
KMRC 050755Z AUTO 00000KT 10SM CLR 00/00 A3002 RMK A01
KMRC 050735Z AUTO 21005KT 10SM CLR 00/00 A3002 RMK A01
KMRC 050715Z AUTO 00000KT 10SM CLR 01/01 A3002 RMK A01
KMRC 050655Z AUTO 21004KT 10SM CLR 01/01 A3002 RMK A01
KMRC 050615Z AUTO 00000KT 10SM CLR 02/02 A3002 RMK A01
KMRC 050555Z AUTO 00000KT 10SM CLR 01/01 A3002 RMK A01
KMRC 050535Z AUTO 00000KT 10SM CLR 02/02 A3002 RMK A01
KMRC 050515Z AUTO 00000KT 10SM CLR 03/02 A3003 RMK A01
KMRC 050455Z AUTO 00000KT 10SM CLR 04/01 A3002 RMK A01
KMRC 050435Z AUTO 00000KT 10SM CLR 03/01 A3002 RMK A01
KMRC 050415Z AUTO 19004KT 10SM CLR 04/01 A3002 RMK A01
KMRC 050355Z AUTO 00000KT 10SM CLR 03/01 A3001 RMK A01
KMRC 050335Z AUTO 00000KT 10SM CLR 03/02 A3000 RMK A01
KMRC 050315Z AUTO 19004KT 10SM CLR 02/01 A2999 RMK A01
KMRC 050255Z AUTO 21005KT 10SM CLR 02/02 A2999 RMK A01
KMRC 050235Z AUTO 00000KT 10SM CLR 03/02 A2999 RMK A01
KMRC 050215Z AUTO 00000KT 10SM CLR 04/02 A2998 RMK A01
KMRC 050155Z AUTO 00000KT 10SM CLR 04/02 A2998 RMK A01
KMRC 050135Z AUTO 21003KT 10SM CLR 03/02 A2997 RMK A01
KMRC 050115Z AUTO 21004KT 10SM CLR 04/01 A2997 RMK A01
KMRC 050055Z AUTO 22003KT 10SM CLR 05/01 A2996 RMK A01
KMRC 050035Z AUTO 20003KT 10SM CLR 06/01 A2996 RMK A01
KMRC 050015Z AUTO 22004KT 10SM CLR 08/M01 A2996 RMK A01
KMRC 042355Z AUTO 00000KT 10SM CLR 08/M01 A2996 RMK A01
KMRC 042335Z AUTO 00000KT 10SM CLR 09/M02 A2995 RMK A01
KMRC 042315Z AUTO 00000KT 10SM CLR 10/M02 A2995 RMK A01
KMRC 042255Z AUTO 00000KT 10SM CLR 12/M02 A2994 RMK A01
KMRC 042235Z AUTO 00000KT 10SM CLR 13/M02 A2994 RMK A01
KMRC 042215Z AUTO 25004KT 10SM CLR 13/M02 A2993 RMK A01
KMRC 042155Z AUTO 26005KT 10SM CLR 14/M02 A2992 RMK A01
KMRC 042135Z AUTO VRB04KT 10SM CLR 14/M02 A2992 RMK A01
KMRC 042115Z AUTO 26004KT 10SM CLR 14/M03 A2991 RMK A01
KMRC 042055Z AUTO 26005KT 10SM CLR 14/M03 A2991 RMK A01
KMRC 042035Z AUTO VRB06KT 10SM CLR 15/M04 A2990 RMK A01
KMRC 042015Z AUTO 27006KT 10SM CLR 15/M03 A2989 RMK A01
KMRC 041955Z AUTO 30006KT 10SM CLR 15/M03 A2989 RMK A01
KMRC 041935Z AUTO 31005KT 10SM CLR 15/M03 A2989 RMK A01
KMRC 041915Z AUTO 31007KT 10SM CLR 15/M03 A2990 RMK A01
KMRC 041855Z AUTO 29007KT 10SM CLR 15/M02 A2990 RMK A01
KMRC 041835Z AUTO VRB06KT 10SM CLR 15/M02 A2990 RMK A01
KMRC 041815Z AUTO 30005KT 10SM CLR 14/M01 A2990 RMK A01
KMRC 041755Z AUTO VRB06KT 10SM CLR 13/M01 A2991 RMK A01
KMRC 041735Z AUTO VRB06G11KT 10SM CLR 13/M01 A2991 RMK A01
KMRC 041715Z AUTO 28007KT 10SM CLR 13/M00 A2993 RMK A01
KMRC 041655Z AUTO VRB06KT 10SM CLR 12/00 A2994 RMK A01
KMRC 041635Z AUTO 25005KT 10SM CLR 11/01 A2994 RMK A01
KMRC 041615Z AUTO VRB04KT 10SM CLR 10/01 A2995 RMK A01
KMRC 041555Z AUTO 28005KT 10SM CLR 09/02 A2995 RMK A01
KMRC 041535Z AUTO 24004KT 10SM CLR 08/02 A2994 RMK A01
KMRC 041515Z AUTO 26004KT 10SM CLR 08/02 A2993 RMK A01
KMRC 041455Z AUTO VRB05KT 10SM CLR 07/03 A2993 RMK A01
KMRC 041435Z AUTO VRB05KT 10SM CLR 06/03 A2992 RMK A01
KMRC 041415Z AUTO 23005KT 10SM CLR 05/03 A2992 RMK A01
KMRC 041355Z AUTO 24005KT 10SM CLR 04/04 A2992 RMK A01
KMRC 041335Z AUTO 22005KT 10SM CLR 03/03 A2991 RMK A01